sensor_id;sensor_type;location;lat;lon;timestamp;P1;durP1;ratioP1;P2;durP2;ratioP2
47153;SDS011;32907;41.412;2.164;2022-09-13T00:01:07;3.42;;;1.10;;
47153;SDS011;32907;41.412;2.164;2022-09-13T00:03:34;2.83;;;1.42;;
47153;SDS011;32907;41.412;2.164;2022-09-13T00:06:07;3.20;;;0.98;;
47153;SDS011;32907;41.412;2.164;2022-09-13T00:08:39;2.33;;;1.20;;
47153;SDS011;32907;41.412;2.164;2022-09-13T00:11:11;1.90;;;1.15;;
47153;SDS011;32907;41.412;2.164;2022-09-13T00:13:49;1.83;;;1.10;;
47153;SDS011;32907;41.412;2.164;2022-09-13T00:16:17;1.90;;;0.93;;
47153;SDS011;32907;41.412;2.164;2022-09-13T00:18:47;2.42;;;1.30;;
47153;SDS011;32907;41.412;2.164;2022-09-13T00:21:15;2.97;;;1.40;;
47153;SDS011;32907;41.412;2.164;2022-09-13T00:23:46;2.30;;;1.10;;
47153;SDS011;32907;41.412;2.164;2022-09-13T00:26:17;3.17;;;1.60;;
47153;SDS011;32907;41.412;2.164;2022-09-13T00:28:50;2.83;;;1.40;;
47153;SDS011;32907;41.412;2.164;2022-09-13T00:31:23;3.28;;;1.70;;
47153;SDS011;32907;41.412;2.164;2022-09-13T00:33:52;4.13;;;2.13;;
47153;SDS011;32907;41.412;2.164;2022-09-13T00:36:20;3.65;;;1.90;;
47153;SDS011;32907;41.412;2.164;2022-09-13T00:38:48;4.53;;;2.22;;
47153;SDS011;32907;41.412;2.164;2022-09-13T00:41:17;4.88;;;2.60;;
47153;SDS011;32907;41.412;2.164;2022-09-13T00:43:47;3.30;;;2.28;;
47153;SDS011;32907;41.412;2.164;2022-09-13T00:48:54;2.60;;;1.80;;
47153;SDS011;32907;41.412;2.164;2022-09-13T00:51:25;4.65;;;2.00;;
47153;SDS011;32907;41.412;2.164;2022-09-13T00:53:53;2.78;;;1.80;;
47153;SDS011;32907;41.412;2.164;2022-09-13T00:56:24;3.03;;;1.65;;
47153;SDS011;32907;41.412;2.164;2022-09-13T00:59:02;3.90;;;1.73;;
47153;SDS011;32907;41.412;2.164;2022-09-13T01:01:37;3.05;;;1.42;;
47153;SDS011;32907;41.412;2.164;2022-09-13T01:04:14;2.67;;;1.45;;
47153;SDS011;32907;41.412;2.164;2022-09-13T01:06:47;3.42;;;1.50;;
47153;SDS011;32907;41.412;2.164;2022-09-13T01:09:16;2.90;;;1.38;;
47153;SDS011;32907;41.412;2.164;2022-09-13T01:11:45;2.97;;;1.45;;
47153;SDS011;32907;41.412;2.164;2022-09-13T01:14:19;2.70;;;1.40;;
47153;SDS011;32907;41.412;2.164;2022-09-13T01:16:48;2.10;;;1.25;;
47153;SDS011;32907;41.412;2.164;2022-09-13T01:19:16;4.22;;;1.50;;
47153;SDS011;32907;41.412;2.164;2022-09-13T01:27:28;4.63;;;1.60;;
47153;SDS011;32907;41.412;2.164;2022-09-13T01:33:05;2.40;;;1.30;;
47153;SDS011;32907;41.412;2.164;2022-09-13T01:38:52;2.35;;;1.30;;
47153;SDS011;32907;41.412;2.164;2022-09-13T01:42:10;3.63;;;1.40;;
47153;SDS011;32907;41.412;2.164;2022-09-13T01:44:40;2.65;;;1.20;;
47153;SDS011;32907;41.412;2.164;2022-09-13T01:50:06;3.90;;;1.65;;
47153;SDS011;32907;41.412;2.164;2022-09-13T01:53:08;5.05;;;1.60;;
47153;SDS011;32907;41.412;2.164;2022-09-13T01:56:01;3.70;;;1.50;;
47153;SDS011;32907;41.412;2.164;2022-09-13T01:58:39;3.42;;;1.50;;
47153;SDS011;32907;41.412;2.164;2022-09-13T02:01:15;2.55;;;1.40;;
47153;SDS011;32907;41.412;2.164;2022-09-13T02:03:51;2.85;;;1.55;;
47153;SDS011;32907;41.412;2.164;2022-09-13T02:06:25;2.53;;;1.40;;
47153;SDS011;32907;41.412;2.164;2022-09-13T02:08:58;2.22;;;1.25;;
47153;SDS011;32907;41.412;2.164;2022-09-13T02:11:28;4.60;;;1.90;;
47153;SDS011;32907;41.412;2.164;2022-09-13T02:16:30;3.38;;;1.40;;
47153;SDS011;32907;41.412;2.164;2022-09-13T02:19:04;4.15;;;1.90;;
47153;SDS011;32907;41.412;2.164;2022-09-13T02:21:37;4.47;;;1.73;;
47153;SDS011;32907;41.412;2.164;2022-09-13T02:24:11;4.35;;;1.58;;
47153;SDS011;32907;41.412;2.164;2022-09-13T02:26:43;2.90;;;1.50;;
47153;SDS011;32907;41.412;2.164;2022-09-13T02:29:13;2.70;;;1.38;;
47153;SDS011;32907;41.412;2.164;2022-09-13T02:31:47;4.07;;;1.70;;
47153;SDS011;32907;41.412;2.164;2022-09-13T02:34:21;2.40;;;1.30;;
47153;SDS011;32907;41.412;2.164;2022-09-13T02:36:54;3.78;;;1.67;;
47153;SDS011;32907;41.412;2.164;2022-09-13T02:39:23;3.13;;;1.40;;
47153;SDS011;32907;41.412;2.164;2022-09-13T02:42:12;2.55;;;1.30;;
47153;SDS011;32907;41.412;2.164;2022-09-13T02:44:50;2.97;;;1.50;;
47153;SDS011;32907;41.412;2.164;2022-09-13T02:53:15;4.07;;;1.20;;
47153;SDS011;32907;41.412;2.164;2022-09-13T02:55:52;2.63;;;1.40;;
47153;SDS011;32907;41.412;2.164;2022-09-13T03:01:06;4.25;;;1.33;;
47153;SDS011;32907;41.412;2.164;2022-09-13T03:03:35;5.07;;;1.92;;
47153;SDS011;32907;41.412;2.164;2022-09-13T03:06:03;4.05;;;1.50;;
47153;SDS011;32907;41.412;2.164;2022-09-13T03:08:32;3.13;;;1.33;;
47153;SDS011;32907;41.412;2.164;2022-09-13T03:11:10;4.25;;;1.92;;
47153;SDS011;32907;41.412;2.164;2022-09-13T03:31:31;5.43;;;1.85;;
47153;SDS011;32907;41.412;2.164;2022-09-13T03:34:06;4.43;;;1.52;;
47153;SDS011;32907;41.412;2.164;2022-09-13T03:42:01;3.53;;;1.60;;
47153;SDS011;32907;41.412;2.164;2022-09-13T03:44:37;6.88;;;1.67;;
47153;SDS011;32907;41.412;2.164;2022-09-13T03:47:08;5.43;;;1.88;;
47153;SDS011;32907;41.412;2.164;2022-09-13T03:49:37;4.72;;;1.70;;
47153;SDS011;32907;41.412;2.164;2022-09-13T03:52:06;4.40;;;2.35;;
47153;SDS011;32907;41.412;2.164;2022-09-13T03:54:35;4.45;;;1.70;;
47153;SDS011;32907;41.412;2.164;2022-09-13T03:57:12;3.60;;;1.92;;
47153;SDS011;32907;41.412;2.164;2022-09-13T03:59:45;4.15;;;1.48;;
47153;SDS011;32907;41.412;2.164;2022-09-13T04:02:22;3.88;;;1.60;;
47153;SDS011;32907;41.412;2.164;2022-09-13T04:04:51;5.72;;;2.17;;
47153;SDS011;32907;41.412;2.164;2022-09-13T04:07:20;4.13;;;1.65;;
47153;SDS011;32907;41.412;2.164;2022-09-13T04:09:49;5.60;;;1.70;;
47153;SDS011;32907;41.412;2.164;2022-09-13T04:12:17;4.50;;;1.85;;
47153;SDS011;32907;41.412;2.164;2022-09-13T04:14:47;5.10;;;1.70;;
47153;SDS011;32907;41.412;2.164;2022-09-13T04:17:15;5.75;;;1.73;;
47153;SDS011;32907;41.412;2.164;2022-09-13T04:19:43;4.03;;;1.60;;
47153;SDS011;32907;41.412;2.164;2022-09-13T04:22:13;4.20;;;1.50;;
47153;SDS011;32907;41.412;2.164;2022-09-13T04:24:41;4.82;;;1.40;;
47153;SDS011;32907;41.412;2.164;2022-09-13T04:27:11;5.57;;;1.30;;
47153;SDS011;32907;41.412;2.164;2022-09-13T04:29:39;2.92;;;1.40;;
47153;SDS011;32907;41.412;2.164;2022-09-13T04:32:07;5.40;;;1.63;;
47153;SDS011;32907;41.412;2.164;2022-09-13T04:34:36;3.08;;;1.48;;
47153;SDS011;32907;41.412;2.164;2022-09-13T04:37:03;4.72;;;1.63;;
47153;SDS011;32907;41.412;2.164;2022-09-13T04:39:31;4.63;;;1.63;;
47153;SDS011;32907;41.412;2.164;2022-09-13T04:41:59;6.05;;;1.92;;
47153;SDS011;32907;41.412;2.164;2022-09-13T04:44:28;5.22;;;1.48;;
47153;SDS011;32907;41.412;2.164;2022-09-13T04:46:56;2.75;;;1.60;;
47153;SDS011;32907;41.412;2.164;2022-09-13T04:49:24;3.42;;;1.30;;
47153;SDS011;32907;41.412;2.164;2022-09-13T04:51:52;4.65;;;1.65;;
47153;SDS011;32907;41.412;2.164;2022-09-13T04:54:20;4.03;;;1.20;;
47153;SDS011;32907;41.412;2.164;2022-09-13T04:56:48;4.78;;;1.45;;
47153;SDS011;32907;41.412;2.164;2022-09-13T04:59:16;4.07;;;1.40;;
47153;SDS011;32907;41.412;2.164;2022-09-13T05:01:44;5.07;;;2.15;;
47153;SDS011;32907;41.412;2.164;2022-09-13T05:04:14;3.70;;;1.27;;
47153;SDS011;32907;41.412;2.164;2022-09-13T05:06:42;4.70;;;1.50;;
47153;SDS011;32907;41.412;2.164;2022-09-13T05:09:12;2.78;;;1.27;;
47153;SDS011;32907;41.412;2.164;2022-09-13T05:11:40;3.03;;;1.25;;
47153;SDS011;32907;41.412;2.164;2022-09-13T05:14:09;3.13;;;1.35;;
47153;SDS011;32907;41.412;2.164;2022-09-13T05:16:38;6.35;;;2.13;;
47153;SDS011;32907;41.412;2.164;2022-09-13T05:19:06;5.05;;;1.52;;
47153;SDS011;32907;41.412;2.164;2022-09-13T05:21:34;4.28;;;1.73;;
47153;SDS011;32907;41.412;2.164;2022-09-13T05:24:02;4.95;;;1.98;;
47153;SDS011;32907;41.412;2.164;2022-09-13T05:26:30;5.50;;;1.63;;
47153;SDS011;32907;41.412;2.164;2022-09-13T05:28:58;3.20;;;1.67;;
47153;SDS011;32907;41.412;2.164;2022-09-13T05:31:28;5.68;;;1.80;;
47153;SDS011;32907;41.412;2.164;2022-09-13T05:34:01;3.97;;;1.67;;
47153;SDS011;32907;41.412;2.164;2022-09-13T05:36:33;3.95;;;1.20;;
47153;SDS011;32907;41.412;2.164;2022-09-13T05:39:01;3.22;;;1.35;;
47153;SDS011;32907;41.412;2.164;2022-09-13T05:41:50;3.40;;;1.40;;
47153;SDS011;32907;41.412;2.164;2022-09-13T05:44:18;3.42;;;1.40;;
47153;SDS011;32907;41.412;2.164;2022-09-13T05:46:46;2.03;;;0.60;;
47153;SDS011;32907;41.412;2.164;2022-09-13T05:49:14;4.00;;;0.70;;
47153;SDS011;32907;41.412;2.164;2022-09-13T05:51:42;1.85;;;0.90;;
47153;SDS011;32907;41.412;2.164;2022-09-13T05:54:11;3.30;;;1.00;;
47153;SDS011;32907;41.412;2.164;2022-09-13T05:56:39;5.25;;;1.55;;
47153;SDS011;32907;41.412;2.164;2022-09-13T05:59:10;3.67;;;1.42;;
47153;SDS011;32907;41.412;2.164;2022-09-13T06:01:39;6.82;;;1.52;;
47153;SDS011;32907;41.412;2.164;2022-09-13T06:04:07;4.53;;;1.52;;
47153;SDS011;32907;41.412;2.164;2022-09-13T06:06:35;3.28;;;1.40;;
47153;SDS011;32907;41.412;2.164;2022-09-13T06:09:02;3.35;;;1.25;;
47153;SDS011;32907;41.412;2.164;2022-09-13T06:11:32;4.22;;;1.70;;
47153;SDS011;32907;41.412;2.164;2022-09-13T06:14:01;5.97;;;1.85;;
47153;SDS011;32907;41.412;2.164;2022-09-13T06:16:28;3.80;;;1.55;;
47153;SDS011;32907;41.412;2.164;2022-09-13T06:18:58;5.80;;;2.00;;
47153;SDS011;32907;41.412;2.164;2022-09-13T06:21:26;6.10;;;1.73;;
47153;SDS011;32907;41.412;2.164;2022-09-13T06:23:56;4.28;;;1.75;;
47153;SDS011;32907;41.412;2.164;2022-09-13T06:26:25;5.05;;;1.80;;
47153;SDS011;32907;41.412;2.164;2022-09-13T06:28:55;4.68;;;1.60;;
47153;SDS011;32907;41.412;2.164;2022-09-13T06:31:25;5.38;;;1.83;;
47153;SDS011;32907;41.412;2.164;2022-09-13T06:33:57;6.05;;;1.58;;
47153;SDS011;32907;41.412;2.164;2022-09-13T06:36:28;8.50;;;2.33;;
47153;SDS011;32907;41.412;2.164;2022-09-13T06:38:56;12.82;;;2.50;;
47153;SDS011;32907;41.412;2.164;2022-09-13T06:41:26;15.88;;;3.13;;
47153;SDS011;32907;41.412;2.164;2022-09-13T06:43:55;11.85;;;2.33;;
47153;SDS011;32907;41.412;2.164;2022-09-13T06:46:25;7.88;;;2.38;;
47153;SDS011;32907;41.412;2.164;2022-09-13T06:49:01;6.72;;;2.00;;
47153;SDS011;32907;41.412;2.164;2022-09-13T06:51:34;6.72;;;1.80;;
47153;SDS011;32907;41.412;2.164;2022-09-13T06:54:02;5.85;;;1.92;;
47153;SDS011;32907;41.412;2.164;2022-09-13T06:56:31;5.60;;;1.88;;
47153;SDS011;32907;41.412;2.164;2022-09-13T06:59:01;5.10;;;1.92;;
47153;SDS011;32907;41.412;2.164;2022-09-13T07:01:37;6.22;;;2.15;;
47153;SDS011;32907;41.412;2.164;2022-09-13T07:04:13;6.88;;;1.67;;
47153;SDS011;32907;41.412;2.164;2022-09-13T07:06:43;7.63;;;1.80;;
47153;SDS011;32907;41.412;2.164;2022-09-13T07:09:14;5.53;;;1.90;;
47153;SDS011;32907;41.412;2.164;2022-09-13T07:11:44;8.45;;;2.08;;
47153;SDS011;32907;41.412;2.164;2022-09-13T07:14:14;4.80;;;1.92;;
47153;SDS011;32907;41.412;2.164;2022-09-13T07:16:43;10.27;;;2.00;;
47153;SDS011;32907;41.412;2.164;2022-09-13T07:19:17;14.48;;;2.63;;
47153;SDS011;32907;41.412;2.164;2022-09-13T07:21:46;7.45;;;1.90;;
47153;SDS011;32907;41.412;2.164;2022-09-13T07:24:16;8.23;;;2.25;;
47153;SDS011;32907;41.412;2.164;2022-09-13T07:26:44;7.72;;;2.08;;
47153;SDS011;32907;41.412;2.164;2022-09-13T07:29:13;9.07;;;2.08;;
47153;SDS011;32907;41.412;2.164;2022-09-13T07:31:43;5.43;;;1.70;;
47153;SDS011;32907;41.412;2.164;2022-09-13T07:34:14;7.10;;;2.30;;
47153;SDS011;32907;41.412;2.164;2022-09-13T07:36:46;11.23;;;2.92;;
47153;SDS011;32907;41.412;2.164;2022-09-13T07:39:15;15.05;;;3.15;;
47153;SDS011;32907;41.412;2.164;2022-09-13T07:41:49;18.98;;;3.63;;
47153;SDS011;32907;41.412;2.164;2022-09-13T07:44:17;15.70;;;3.20;;
47153;SDS011;32907;41.412;2.164;2022-09-13T07:46:45;20.77;;;3.53;;
47153;SDS011;32907;41.412;2.164;2022-09-13T07:49:13;14.52;;;3.25;;
47153;SDS011;32907;41.412;2.164;2022-09-13T07:51:43;13.57;;;3.25;;
47153;SDS011;32907;41.412;2.164;2022-09-13T07:54:12;30.85;;;5.43;;
47153;SDS011;32907;41.412;2.164;2022-09-13T07:56:42;22.35;;;4.40;;
47153;SDS011;32907;41.412;2.164;2022-09-13T07:59:11;12.13;;;3.15;;
47153;SDS011;32907;41.412;2.164;2022-09-13T08:01:41;21.40;;;3.03;;
47153;SDS011;32907;41.412;2.164;2022-09-13T08:04:17;12.93;;;3.17;;
47153;SDS011;32907;41.412;2.164;2022-09-13T08:06:47;16.17;;;3.00;;
47153;SDS011;32907;41.412;2.164;2022-09-13T08:09:16;14.27;;;2.88;;
47153;SDS011;32907;41.412;2.164;2022-09-13T08:11:49;11.18;;;2.63;;
47153;SDS011;32907;41.412;2.164;2022-09-13T08:14:20;15.88;;;3.03;;
47153;SDS011;32907;41.412;2.164;2022-09-13T08:16:49;17.00;;;3.53;;
47153;SDS011;32907;41.412;2.164;2022-09-13T08:19:17;14.00;;;3.05;;
47153;SDS011;32907;41.412;2.164;2022-09-13T08:21:45;11.65;;;2.65;;
47153;SDS011;32907;41.412;2.164;2022-09-13T08:24:18;10.10;;;2.88;;
47153;SDS011;32907;41.412;2.164;2022-09-13T08:26:47;15.75;;;3.30;;
47153;SDS011;32907;41.412;2.164;2022-09-13T08:29:16;8.05;;;2.45;;
47153;SDS011;32907;41.412;2.164;2022-09-13T08:31:43;11.30;;;2.60;;
47153;SDS011;32907;41.412;2.164;2022-09-13T08:34:12;10.18;;;2.60;;
47153;SDS011;32907;41.412;2.164;2022-09-13T08:36:41;7.72;;;2.63;;
47153;SDS011;32907;41.412;2.164;2022-09-13T08:39:11;7.55;;;2.55;;
47153;SDS011;32907;41.412;2.164;2022-09-13T09:00:58;8.85;;;4.00;;
47153;SDS011;32907;41.412;2.164;2022-09-13T09:03:51;46.00;;;17.02;;
47153;SDS011;32907;41.412;2.164;2022-09-13T09:06:23;52.75;;;17.88;;
47153;SDS011;32907;41.412;2.164;2022-09-13T09:08:58;38.50;;;12.50;;
47153;SDS011;32907;41.412;2.164;2022-09-13T09:11:41;29.52;;;10.30;;
47153;SDS011;32907;41.412;2.164;2022-09-13T09:14:29;20.37;;;9.33;;
47153;SDS011;32907;41.412;2.164;2022-09-13T09:17:04;20.67;;;8.57;;
47153;SDS011;32907;41.412;2.164;2022-09-13T09:22:33;25.00;;;7.60;;
47153;SDS011;32907;41.412;2.164;2022-09-13T09:25:02;23.48;;;8.43;;
47153;SDS011;32907;41.412;2.164;2022-09-13T09:27:31;19.08;;;7.20;;
47153;SDS011;32907;41.412;2.164;2022-09-13T09:29:59;23.77;;;7.22;;
47153;SDS011;32907;41.412;2.164;2022-09-13T09:41:21;34.50;;;7.97;;
47153;SDS011;32907;41.412;2.164;2022-09-13T09:43:58;24.38;;;7.20;;
47153;SDS011;32907;41.412;2.164;2022-09-13T09:46:33;27.45;;;7.10;;
47153;SDS011;32907;41.412;2.164;2022-09-13T09:49:06;27.90;;;6.18;;
47153;SDS011;32907;41.412;2.164;2022-09-13T09:52:22;30.90;;;6.78;;
47153;SDS011;32907;41.412;2.164;2022-09-13T09:54:59;31.00;;;6.80;;
47153;SDS011;32907;41.412;2.164;2022-09-13T09:57:48;32.35;;;6.68;;
47153;SDS011;32907;41.412;2.164;2022-09-13T10:00:23;29.75;;;6.75;;
47153;SDS011;32907;41.412;2.164;2022-09-13T10:02:53;26.92;;;6.78;;
47153;SDS011;32907;41.412;2.164;2022-09-13T10:05:24;24.55;;;6.57;;
47153;SDS011;32907;41.412;2.164;2022-09-13T10:07:55;34.55;;;7.03;;
47153;SDS011;32907;41.412;2.164;2022-09-13T10:13:17;14.23;;;5.13;;
47153;SDS011;32907;41.412;2.164;2022-09-13T10:15:54;15.77;;;3.92;;
47153;SDS011;32907;41.412;2.164;2022-09-13T10:18:36;10.65;;;4.43;;
47153;SDS011;32907;41.412;2.164;2022-09-13T10:23:46;19.10;;;4.63;;
47153;SDS011;32907;41.412;2.164;2022-09-13T10:26:17;15.38;;;4.07;;
47153;SDS011;32907;41.412;2.164;2022-09-13T10:31:37;7.03;;;3.70;;
47153;SDS011;32907;41.412;2.164;2022-09-13T10:34:15;11.00;;;3.63;;
47153;SDS011;32907;41.412;2.164;2022-09-13T10:36:55;14.02;;;3.50;;
47153;SDS011;32907;41.412;2.164;2022-09-13T10:39:30;15.57;;;4.85;;
47153;SDS011;32907;41.412;2.164;2022-09-13T10:42:02;18.83;;;8.38;;
47153;SDS011;32907;41.412;2.164;2022-09-13T10:44:39;27.42;;;10.50;;
47153;SDS011;32907;41.412;2.164;2022-09-13T10:47:10;24.60;;;8.85;;
47153;SDS011;32907;41.412;2.164;2022-09-13T10:57:47;13.43;;;5.10;;
47153;SDS011;32907;41.412;2.164;2022-09-13T11:00:28;10.85;;;4.60;;
47153;SDS011;32907;41.412;2.164;2022-09-13T11:05:36;38.13;;;6.43;;
47153;SDS011;32907;41.412;2.164;2022-09-13T11:10:50;32.65;;;5.82;;
47153;SDS011;32907;41.412;2.164;2022-09-13T11:13:34;50.70;;;9.40;;
47153;SDS011;32907;41.412;2.164;2022-09-13T11:24:05;22.23;;;4.80;;
47153;SDS011;32907;41.412;2.164;2022-09-13T11:30:11;13.50;;;4.70;;
47153;SDS011;32907;41.412;2.164;2022-09-13T11:50:24;17.63;;;4.38;;
47153;SDS011;32907;41.412;2.164;2022-09-13T11:56:00;11.00;;;2.75;;
47153;SDS011;32907;41.412;2.164;2022-09-13T11:58:55;9.30;;;2.83;;
47153;SDS011;32907;41.412;2.164;2022-09-13T12:01:43;10.93;;;2.75;;
47153;SDS011;32907;41.412;2.164;2022-09-13T12:04:20;8.63;;;2.15;;
47153;SDS011;32907;41.412;2.164;2022-09-13T12:07:11;7.53;;;2.33;;
47153;SDS011;32907;41.412;2.164;2022-09-13T12:09:47;8.95;;;2.40;;
47153;SDS011;32907;41.412;2.164;2022-09-13T12:12:22;9.80;;;1.90;;
47153;SDS011;32907;41.412;2.164;2022-09-13T12:14:56;9.30;;;1.98;;
47153;SDS011;32907;41.412;2.164;2022-09-13T12:17:38;12.45;;;2.92;;
47153;SDS011;32907;41.412;2.164;2022-09-13T12:20:20;10.10;;;2.42;;
47153;SDS011;32907;41.412;2.164;2022-09-13T12:23:02;73.22;;;35.85;;
47153;SDS011;32907;41.412;2.164;2022-09-13T12:25:55;86.65;;;45.80;;
47153;SDS011;32907;41.412;2.164;2022-09-13T12:28:49;113.88;;;49.30;;
47153;SDS011;32907;41.412;2.164;2022-09-13T12:31:22;86.25;;;40.08;;
47153;SDS011;32907;41.412;2.164;2022-09-13T12:33:52;55.20;;;24.60;;
47153;SDS011;32907;41.412;2.164;2022-09-13T12:56:41;26.67;;;4.38;;
47153;SDS011;32907;41.412;2.164;2022-09-13T13:02:27;7.18;;;2.58;;
47153;SDS011;32907;41.412;2.164;2022-09-13T13:05:05;8.18;;;2.65;;
47153;SDS011;32907;41.412;2.164;2022-09-13T13:07:58;11.57;;;4.40;;
47153;SDS011;32907;41.412;2.164;2022-09-13T13:10:34;14.03;;;5.63;;
47153;SDS011;32907;41.412;2.164;2022-09-13T13:18:22;15.07;;;3.95;;
47153;SDS011;32907;41.412;2.164;2022-09-13T13:23:26;17.50;;;4.00;;
47153;SDS011;32907;41.412;2.164;2022-09-13T13:33:52;16.30;;;3.88;;
47153;SDS011;32907;41.412;2.164;2022-09-13T13:38:55;13.20;;;3.25;;
47153;SDS011;32907;41.412;2.164;2022-09-13T13:44:00;28.13;;;3.92;;
47153;SDS011;32907;41.412;2.164;2022-09-13T13:46:37;19.55;;;4.63;;
47153;SDS011;32907;41.412;2.164;2022-09-13T13:59:53;29.77;;;4.45;;
47153;SDS011;32907;41.412;2.164;2022-09-13T14:02:31;34.47;;;5.63;;
47153;SDS011;32907;41.412;2.164;2022-09-13T14:11:12;9.88;;;3.28;;
47153;SDS011;32907;41.412;2.164;2022-09-13T14:19:45;8.35;;;2.95;;
47153;SDS011;32907;41.412;2.164;2022-09-13T14:24:54;9.25;;;2.17;;
47153;SDS011;32907;41.412;2.164;2022-09-13T14:27:32;7.97;;;1.80;;
47153;SDS011;32907;41.412;2.164;2022-09-13T14:30:03;5.90;;;1.58;;
47153;SDS011;32907;41.412;2.164;2022-09-13T14:32:48;8.27;;;1.85;;
47153;SDS011;32907;41.412;2.164;2022-09-13T14:37:52;7.18;;;1.77;;
47153;SDS011;32907;41.412;2.164;2022-09-13T14:40:25;5.40;;;1.73;;
47153;SDS011;32907;41.412;2.164;2022-09-13T14:42:55;5.60;;;1.67;;
47153;SDS011;32907;41.412;2.164;2022-09-13T14:45:24;7.20;;;1.45;;
47153;SDS011;32907;41.412;2.164;2022-09-13T14:47:58;7.75;;;1.50;;
47153;SDS011;32907;41.412;2.164;2022-09-13T14:50:32;5.63;;;1.15;;
47153;SDS011;32907;41.412;2.164;2022-09-13T14:53:04;7.63;;;1.35;;
47153;SDS011;32907;41.412;2.164;2022-09-13T14:55:35;7.07;;;1.30;;
47153;SDS011;32907;41.412;2.164;2022-09-13T14:58:17;4.97;;;1.20;;
47153;SDS011;32907;41.412;2.164;2022-09-13T15:00:57;8.27;;;1.17;;
47153;SDS011;32907;41.412;2.164;2022-09-13T15:03:27;8.07;;;1.33;;
47153;SDS011;32907;41.412;2.164;2022-09-13T15:05:55;7.07;;;1.30;;
47153;SDS011;32907;41.412;2.164;2022-09-13T15:11:00;7.95;;;1.40;;
47153;SDS011;32907;41.412;2.164;2022-09-13T15:13:29;8.35;;;2.17;;
47153;SDS011;32907;41.412;2.164;2022-09-13T15:15:57;5.72;;;2.05;;
47153;SDS011;32907;41.412;2.164;2022-09-13T15:18:29;7.40;;;2.10;;
47153;SDS011;32907;41.412;2.164;2022-09-13T15:21:14;7.82;;;1.95;;
47153;SDS011;32907;41.412;2.164;2022-09-13T15:23:50;9.48;;;1.70;;
47153;SDS011;32907;41.412;2.164;2022-09-13T15:26:24;7.28;;;2.08;;
47153;SDS011;32907;41.412;2.164;2022-09-13T15:31:23;7.85;;;1.60;;
47153;SDS011;32907;41.412;2.164;2022-09-13T15:41:40;8.23;;;1.33;;
47153;SDS011;32907;41.412;2.164;2022-09-13T15:44:17;9.63;;;1.40;;
47153;SDS011;32907;41.412;2.164;2022-09-13T15:46:49;5.60;;;1.20;;
47153;SDS011;32907;41.412;2.164;2022-09-13T15:49:22;7.35;;;1.40;;
47153;SDS011;32907;41.412;2.164;2022-09-13T15:51:57;10.23;;;1.10;;
47153;SDS011;32907;41.412;2.164;2022-09-13T15:54:36;5.40;;;1.13;;
47153;SDS011;32907;41.412;2.164;2022-09-13T15:57:16;7.50;;;1.27;;
47153;SDS011;32907;41.412;2.164;2022-09-13T15:59:47;11.45;;;1.77;;
47153;SDS011;32907;41.412;2.164;2022-09-13T16:02:23;10.88;;;1.80;;
47153;SDS011;32907;41.412;2.164;2022-09-13T16:04:53;6.68;;;1.60;;
47153;SDS011;32907;41.412;2.164;2022-09-13T16:07:22;6.05;;;1.17;;
47153;SDS011;32907;41.412;2.164;2022-09-13T16:09:51;6.38;;;1.25;;
47153;SDS011;32907;41.412;2.164;2022-09-13T16:12:21;6.18;;;1.27;;
47153;SDS011;32907;41.412;2.164;2022-09-13T16:14:50;6.15;;;2.20;;
47153;SDS011;32907;41.412;2.164;2022-09-13T16:17:24;6.97;;;1.45;;
47153;SDS011;32907;41.412;2.164;2022-09-13T16:19:56;5.43;;;1.00;;
47153;SDS011;32907;41.412;2.164;2022-09-13T16:22:23;3.47;;;1.30;;
47153;SDS011;32907;41.412;2.164;2022-09-13T16:24:51;7.47;;;1.70;;
47153;SDS011;32907;41.412;2.164;2022-09-13T16:27:19;4.82;;;1.13;;
47153;SDS011;32907;41.412;2.164;2022-09-13T16:29:47;8.60;;;1.63;;
47153;SDS011;32907;41.412;2.164;2022-09-13T16:32:15;5.75;;;1.30;;
47153;SDS011;32907;41.412;2.164;2022-09-13T16:34:43;6.20;;;1.25;;
47153;SDS011;32907;41.412;2.164;2022-09-13T16:37:12;3.95;;;0.93;;
47153;SDS011;32907;41.412;2.164;2022-09-13T16:39:42;4.93;;;1.15;;
47153;SDS011;32907;41.412;2.164;2022-09-13T16:42:12;6.82;;;1.30;;
47153;SDS011;32907;41.412;2.164;2022-09-13T16:44:42;4.30;;;0.90;;
47153;SDS011;32907;41.412;2.164;2022-09-13T16:47:10;4.78;;;1.00;;
47153;SDS011;32907;41.412;2.164;2022-09-13T16:49:38;3.78;;;1.58;;
47153;SDS011;32907;41.412;2.164;2022-09-13T16:52:06;3.60;;;0.88;;
47153;SDS011;32907;41.412;2.164;2022-09-13T16:54:35;3.20;;;0.75;;
47153;SDS011;32907;41.412;2.164;2022-09-13T16:57:06;8.90;;;1.60;;
47153;SDS011;32907;41.412;2.164;2022-09-13T16:59:36;4.00;;;1.00;;
47153;SDS011;32907;41.412;2.164;2022-09-13T17:02:04;4.90;;;1.00;;
47153;SDS011;32907;41.412;2.164;2022-09-13T17:04:33;4.90;;;0.90;;
47153;SDS011;32907;41.412;2.164;2022-09-13T17:07:01;5.88;;;0.82;;
47153;SDS011;32907;41.412;2.164;2022-09-13T17:09:34;2.45;;;0.90;;
47153;SDS011;32907;41.412;2.164;2022-09-13T17:12:02;4.63;;;0.93;;
47153;SDS011;32907;41.412;2.164;2022-09-13T17:14:31;4.35;;;0.98;;
47153;SDS011;32907;41.412;2.164;2022-09-13T17:17:00;3.55;;;0.80;;
47153;SDS011;32907;41.412;2.164;2022-09-13T17:19:29;4.70;;;0.98;;
47153;SDS011;32907;41.412;2.164;2022-09-13T17:22:02;2.15;;;0.63;;
47153;SDS011;32907;41.412;2.164;2022-09-13T17:24:34;6.18;;;1.45;;
47153;SDS011;32907;41.412;2.164;2022-09-13T17:27:03;4.07;;;1.00;;
47153;SDS011;32907;41.412;2.164;2022-09-13T17:29:33;3.33;;;0.70;;
47153;SDS011;32907;41.412;2.164;2022-09-13T17:32:02;4.95;;;1.23;;
47153;SDS011;32907;41.412;2.164;2022-09-13T17:34:33;5.22;;;1.50;;
47153;SDS011;32907;41.412;2.164;2022-09-13T17:37:02;5.15;;;1.08;;
47153;SDS011;32907;41.412;2.164;2022-09-13T17:39:30;5.82;;;1.23;;
47153;SDS011;32907;41.412;2.164;2022-09-13T17:41:57;4.47;;;1.23;;
47153;SDS011;32907;41.412;2.164;2022-09-13T17:44:26;5.22;;;1.23;;
47153;SDS011;32907;41.412;2.164;2022-09-13T17:46:53;7.18;;;1.35;;
47153;SDS011;32907;41.412;2.164;2022-09-13T17:49:21;3.42;;;1.08;;
47153;SDS011;32907;41.412;2.164;2022-09-13T17:51:49;6.00;;;1.45;;
47153;SDS011;32907;41.412;2.164;2022-09-13T17:54:17;4.85;;;1.50;;
47153;SDS011;32907;41.412;2.164;2022-09-13T17:56:44;4.13;;;1.13;;
47153;SDS011;32907;41.412;2.164;2022-09-13T17:59:17;3.08;;;1.10;;
47153;SDS011;32907;41.412;2.164;2022-09-13T18:01:47;8.77;;;1.45;;
47153;SDS011;32907;41.412;2.164;2022-09-13T18:04:18;11.55;;;1.30;;
47153;SDS011;32907;41.412;2.164;2022-09-13T18:06:49;4.40;;;1.27;;
47153;SDS011;32907;41.412;2.164;2022-09-13T18:09:20;3.95;;;1.00;;
47153;SDS011;32907;41.412;2.164;2022-09-13T18:11:48;5.28;;;1.50;;
47153;SDS011;32907;41.412;2.164;2022-09-13T18:14:17;6.28;;;2.05;;
47153;SDS011;32907;41.412;2.164;2022-09-13T18:16:45;6.65;;;1.67;;
47153;SDS011;32907;41.412;2.164;2022-09-13T18:19:15;4.93;;;1.50;;
47153;SDS011;32907;41.412;2.164;2022-09-13T18:21:43;7.70;;;1.90;;
47153;SDS011;32907;41.412;2.164;2022-09-13T18:24:11;5.93;;;1.80;;
47153;SDS011;32907;41.412;2.164;2022-09-13T18:26:38;4.95;;;1.80;;
47153;SDS011;32907;41.412;2.164;2022-09-13T18:29:08;6.32;;;2.08;;
47153;SDS011;32907;41.412;2.164;2022-09-13T18:31:39;6.13;;;1.30;;
47153;SDS011;32907;41.412;2.164;2022-09-13T18:34:11;4.00;;;1.40;;
47153;SDS011;32907;41.412;2.164;2022-09-13T18:36:42;8.32;;;2.03;;
47153;SDS011;32907;41.412;2.164;2022-09-13T18:39:20;8.05;;;2.30;;
47153;SDS011;32907;41.412;2.164;2022-09-13T18:41:48;6.97;;;2.15;;
47153;SDS011;32907;41.412;2.164;2022-09-13T18:44:17;7.28;;;1.90;;
47153;SDS011;32907;41.412;2.164;2022-09-13T18:46:45;5.05;;;1.48;;
47153;SDS011;32907;41.412;2.164;2022-09-13T18:49:13;6.60;;;1.90;;
47153;SDS011;32907;41.412;2.164;2022-09-13T18:51:42;7.43;;;2.35;;
47153;SDS011;32907;41.412;2.164;2022-09-13T18:54:12;8.05;;;2.38;;